EGGP

Liverpool John Lennon  Airport

Liverpool, United Kingdom

TAF AMD EGGP 190140Z 1901/1924 32005KT 9999 SCT045 BECMG 1918/1921 16010KT TEMPO 1920/1924 8000 -RA PROB30 TEMPO 1922/1924 RA BKN014

Issued Valid From Valid To
Nov-19 @ 01:40 UTC
(an hour ago)
Nov-19 @ 01:00 UTC
(2 hours ago)
Nov-20 @ 00:00 UTC
(in 21 hours)
Nov-19 @ 01:00 -Nov-19 @ 18:00
Wind Visibility Clouds
320° at 5 knots 10,000+ meters
  • Scattered at 4,500' AGL
Becoming Nov-19 @ 18:00 -Nov-20 @ 00:00
Wind Visibility Clouds
160° at 10 knots 10,000+ meters
  • Scattered at 4,500' AGL
Temporary Nov-19 @ 20:00 -Nov-20 @ 00:00
Visibility Conditions
7,998 meters
  • Light Rain
Probability 30% Temporary Nov-19 @ 22:00 -Nov-20 @ 00:00
Clouds Conditions
  • Broken at 1,400' AGL
  • Rain
Issued Nov-19 @ 01:40 UTC
(an hour ago)
Valid From Nov-19 @ 01:00 UTC
(2 hours ago)
Valid To Nov-20 @ 00:00 UTC
(in 21 hours)
Nov-19 @ 01:00 - Nov-19 @ 18:00
Wind Visibility
320° at 5 knots 10,000+ meters
Clouds
  • Scattered at 4,500' AGL
Becoming Nov-19 @ 18:00 - Nov-20 @ 00:00
Wind Visibility
160° at 10 knots 10,000+ meters
Clouds
  • Scattered at 4,500' AGL
Temporary Nov-19 @ 20:00 - Nov-20 @ 00:00
Conditions
  • Light Rain
Probability 30% Temporary Nov-19 @ 22:00 - Nov-20 @ 00:00
Clouds
  • Broken at 1,400' AGL
Conditions
  • Rain